createdAt,value
2017-09-18T00:00:35.684Z,11.68
2017-09-18T00:03:05.226Z,11.68
2017-09-18T00:05:35.016Z,11.70
2017-09-18T00:08:04.555Z,11.68
2017-09-18T00:10:34.178Z,11.66
2017-09-18T00:13:03.809Z,11.66
2017-09-18T00:15:33.368Z,11.70
2017-09-18T00:18:02.925Z,11.69
2017-09-18T00:20:33.130Z,11.69
2017-09-18T00:23:02.687Z,11.70
2017-09-18T00:25:32.226Z,11.67
2017-09-18T00:28:01.754Z,11.68
2017-09-18T00:30:31.390Z,11.71
2017-09-18T00:33:00.929Z,11.68
2017-09-18T00:35:30.476Z,11.63
2017-09-18T00:37:59.947Z,11.68
2017-09-18T00:40:29.491Z,11.66
2017-09-18T00:42:59.023Z,11.64
2017-09-18T00:45:28.878Z,11.66
2017-09-18T00:47:58.474Z,11.62
2017-09-18T00:50:28.133Z,11.63
2017-09-18T00:52:58.201Z,11.64
2017-09-18T00:55:27.839Z,11.60
2017-09-18T00:57:57.446Z,11.58
2017-09-18T01:00:27.054Z,11.60
2017-09-18T01:02:56.618Z,11.63
2017-09-18T01:05:26.191Z,11.66
2017-09-18T01:07:55.790Z,11.62
2017-09-18T01:10:25.390Z,11.58
2017-09-18T01:12:54.946Z,11.55
2017-09-18T01:15:24.551Z,11.59
2017-09-18T01:17:54.055Z,11.55
2017-09-18T01:20:23.766Z,11.59
2017-09-18T01:22:53.325Z,11.62
2017-09-18T01:25:22.894Z,11.59
2017-09-18T01:27:53.078Z,11.56
2017-09-18T01:30:22.690Z,11.53
2017-09-18T01:32:52.172Z,11.44
2017-09-18T01:35:21.850Z,11.49
2017-09-18T01:37:51.351Z,11.42
2017-09-18T01:40:20.999Z,11.37
2017-09-18T01:42:50.532Z,11.32
2017-09-18T01:45:20.108Z,11.26
2017-09-18T01:47:49.682Z,11.29
2017-09-18T01:50:19.274Z,11.23
2017-09-18T01:52:48.783Z,11.16
2017-09-18T01:55:18.424Z,11.14
2017-09-18T01:57:48.193Z,11.11
2017-09-18T02:00:18.005Z,11.05
2017-09-18T02:02:47.623Z,11.10
2017-09-18T02:05:17.200Z,11.04
2017-09-18T02:07:46.775Z,11.00
2017-09-18T02:10:16.399Z,10.97
2017-09-18T02:12:45.962Z,10.99
2017-09-18T02:15:15.638Z,10.95
2017-09-18T02:17:45.142Z,10.93
2017-09-18T02:20:15.100Z,10.87
2017-09-18T02:22:44.643Z,10.83
2017-09-18T02:25:14.247Z,10.82
2017-09-18T02:27:43.754Z,10.80
2017-09-18T02:30:13.416Z,10.69
2017-09-18T02:32:43.095Z,10.61
2017-09-18T02:35:13.086Z,10.61
2017-09-18T02:37:42.689Z,10.57
2017-09-18T02:40:12.451Z,10.56
2017-09-18T02:42:42.008Z,10.50
2017-09-18T02:45:11.603Z,10.47
2017-09-18T02:47:41.095Z,10.44
2017-09-18T02:50:10.675Z,10.41
2017-09-18T02:52:40.167Z,10.37
2017-09-18T02:55:09.794Z,10.33
2017-09-18T02:57:39.299Z,10.26
2017-09-18T03:00:08.874Z,10.22
2017-09-18T03:02:38.372Z,10.19
2017-09-18T03:05:08.115Z,10.14
2017-09-18T03:07:37.812Z,10.10
2017-09-18T03:10:07.415Z,10.10
2017-09-18T03:12:37.026Z,10.07
2017-09-18T03:15:06.727Z,10.03
2017-09-18T03:17:36.227Z,9.99
2017-09-18T03:20:05.834Z,9.99
2017-09-18T03:22:35.375Z,9.92
2017-09-18T03:25:04.948Z,9.86
2017-09-18T03:27:34.495Z,9.90
2017-09-18T03:30:04.064Z,9.88
2017-09-18T03:32:33.622Z,9.87
2017-09-18T03:35:03.188Z,9.85
2017-09-18T03:37:32.854Z,9.84
2017-09-18T03:40:02.374Z,9.81
2017-09-18T03:42:31.950Z,9.74
2017-09-18T03:45:01.505Z,9.74
2017-09-18T03:47:31.059Z,9.71
2017-09-18T03:50:00.643Z,9.73
2017-09-18T03:52:30.395Z,9.71
2017-09-18T03:55:00.047Z,9.68
2017-09-18T03:57:29.717Z,9.66
2017-09-18T03:59:59.348Z,9.62
2017-09-18T04:05:25.430Z,9.58
2017-09-18T04:07:54.884Z,9.55
2017-09-18T04:10:24.436Z,9.53
2017-09-18T04:12:53.951Z,9.47
2017-09-18T04:15:23.530Z,9.46
2017-09-18T04:17:56.015Z,9.43
2017-09-18T04:20:25.698Z,9.44
2017-09-18T04:22:55.208Z,9.44
2017-09-18T04:25:24.770Z,9.43
2017-09-18T04:27:54.301Z,9.43
2017-09-18T04:30:23.851Z,9.39
2017-09-18T04:32:53.371Z,9.28
2017-09-18T04:35:22.955Z,9.33
2017-09-18T04:37:52.414Z,9.30
2017-09-18T04:40:21.963Z,9.26
2017-09-18T04:42:51.542Z,9.23
2017-09-18T04:45:21.202Z,9.20
2017-09-18T04:47:50.880Z,9.19
2017-09-18T04:50:20.381Z,9.17
2017-09-18T04:52:50.075Z,9.13
2017-09-18T04:55:19.598Z,9.14
2017-09-18T04:57:49.286Z,9.16
2017-09-18T05:00:18.923Z,9.19
2017-09-18T05:02:48.471Z,9.16
2017-09-18T05:05:18.135Z,9.19
2017-09-18T05:07:47.723Z,9.20
2017-09-18T05:10:17.753Z,9.19
2017-09-18T05:12:48.384Z,9.14
2017-09-18T05:15:40.657Z,9.14
2017-09-18T05:18:12.944Z,9.17
2017-09-18T05:20:43.976Z,9.15
2017-09-18T05:23:14.284Z,9.13
2017-09-18T05:25:43.825Z,9.22
2017-09-18T05:28:13.383Z,9.24
2017-09-18T05:30:42.957Z,9.24
2017-09-18T05:33:12.616Z,9.31
2017-09-18T05:35:42.239Z,9.35
2017-09-18T05:38:11.782Z,9.31
2017-09-18T05:40:41.487Z,9.34
2017-09-18T05:43:11.018Z,9.35
2017-09-18T05:45:40.610Z,9.42
2017-09-18T05:48:10.210Z,9.48
2017-09-18T05:50:39.754Z,9.56
2017-09-18T05:53:09.368Z,9.62
2017-09-18T05:55:39.523Z,9.71
2017-09-18T05:58:10.970Z,9.75
2017-09-18T06:00:41.251Z,9.78
2017-09-18T06:03:10.702Z,9.84
2017-09-18T06:05:40.927Z,9.94
2017-09-18T06:08:10.532Z,10.08
2017-09-18T06:10:40.052Z,10.17
2017-09-18T06:13:09.849Z,10.28
2017-09-18T06:15:39.369Z,10.38
2017-09-18T06:18:08.882Z,10.45
2017-09-18T06:20:38.392Z,10.75
2017-09-18T06:23:07.961Z,11.04
2017-09-18T06:25:39.732Z,11.49
2017-09-18T06:28:09.550Z,11.99
2017-09-18T06:30:41.330Z,12.55
2017-09-18T06:33:10.843Z,12.47
2017-09-18T06:35:40.330Z,12.81
2017-09-18T06:38:09.858Z,12.91
2017-09-18T06:40:39.347Z,13.04
2017-09-18T06:43:08.829Z,13.25
2017-09-18T06:45:38.399Z,13.42
2017-09-18T06:48:11.251Z,13.07
2017-09-18T06:53:21.667Z,13.69
2017-09-18T06:55:51.273Z,13.87
2017-09-18T06:58:20.882Z,13.48
2017-09-18T07:00:50.822Z,13.50
2017-09-18T07:03:20.677Z,13.52
2017-09-18T07:05:50.255Z,13.34
2017-09-18T07:08:19.867Z,13.07
2017-09-18T07:10:49.444Z,12.92
2017-09-18T07:13:19.684Z,12.76
2017-09-18T07:15:49.287Z,12.76
2017-09-18T07:18:18.787Z,12.71
2017-09-18T07:20:48.398Z,12.69
2017-09-18T07:23:17.976Z,12.66
2017-09-18T07:25:47.522Z,12.70
2017-09-18T07:28:17.021Z,12.64
2017-09-18T07:30:46.585Z,12.71
2017-09-18T07:33:16.227Z,12.64
2017-09-18T07:35:46.429Z,12.70
2017-09-18T07:38:16.064Z,12.82
2017-09-18T07:40:45.604Z,12.93
2017-09-18T07:43:15.179Z,12.95
2017-09-18T07:45:44.731Z,12.97
2017-09-18T07:48:14.297Z,12.96
2017-09-18T07:50:43.860Z,12.89
2017-09-18T07:53:13.904Z,12.95
2017-09-18T07:55:43.758Z,13.01
2017-09-18T07:58:13.216Z,13.09
2017-09-18T08:00:43.007Z,13.19
2017-09-18T08:03:12.620Z,13.28
2017-09-18T08:05:42.300Z,13.40
2017-09-18T08:08:11.851Z,13.51
2017-09-18T08:10:42.531Z,13.56
2017-09-18T08:13:12.311Z,13.63
2017-09-18T08:15:41.832Z,13.72
2017-09-18T08:18:11.596Z,13.84
2017-09-18T08:20:41.541Z,13.93
2017-09-18T08:23:11.352Z,14.00
2017-09-18T08:25:40.836Z,14.12
2017-09-18T08:28:10.408Z,14.18
2017-09-18T08:30:39.934Z,14.27
2017-09-18T08:33:09.623Z,14.29
2017-09-18T08:35:39.510Z,14.21
2017-09-18T08:38:09.222Z,14.30
2017-09-18T08:40:39.146Z,14.28
2017-09-18T08:43:08.915Z,14.31
2017-09-18T08:45:38.583Z,14.34
2017-09-18T08:48:08.741Z,14.43
2017-09-18T08:50:38.418Z,14.43
2017-09-18T08:53:08.324Z,14.23
2017-09-18T08:55:38.103Z,14.20
2017-09-18T08:58:07.768Z,14.46
2017-09-18T09:00:37.654Z,14.60
2017-09-18T09:03:07.115Z,14.61
2017-09-18T09:05:36.663Z,14.67
2017-09-18T09:08:06.258Z,14.78
2017-09-18T09:10:35.827Z,14.68
2017-09-18T09:13:05.287Z,14.73
2017-09-18T09:15:34.796Z,15.00
2017-09-18T09:18:04.234Z,15.19
2017-09-18T09:20:33.723Z,15.45
2017-09-18T09:23:03.600Z,15.43
2017-09-18T09:25:33.615Z,15.78
2017-09-18T09:28:03.279Z,16.15
2017-09-18T09:30:33.034Z,16.79
2017-09-18T09:33:03.187Z,17.29
2017-09-18T09:35:43.998Z,17.40
2017-09-18T09:38:13.604Z,17.39
2017-09-18T09:40:43.294Z,17.71
2017-09-18T09:43:12.796Z,17.71
2017-09-18T09:45:44.135Z,17.81
2017-09-18T09:48:14.144Z,18.02
2017-09-18T09:50:44.077Z,18.28
2017-09-18T09:53:16.160Z,18.51
2017-09-18T09:55:46.947Z,19.57
2017-09-18T09:58:20.734Z,19.81
2017-09-18T10:00:51.495Z,20.63
2017-09-18T10:03:21.097Z,22.44
2017-09-18T10:05:50.752Z,24.04
2017-09-18T10:08:20.239Z,24.19
2017-09-18T10:10:50.788Z,23.63
2017-09-18T10:13:20.767Z,22.46
2017-09-18T10:15:50.267Z,22.66
2017-09-18T10:18:19.807Z,21.99
2017-09-18T10:20:49.350Z,22.07
2017-09-18T10:23:20.458Z,20.97
2017-09-18T10:25:50.258Z,20.35
2017-09-18T10:28:19.898Z,19.65
2017-09-18T10:30:49.632Z,19.34
2017-09-18T10:33:20.047Z,19.23
2017-09-18T10:35:50.417Z,19.61
2017-09-18T10:38:19.990Z,19.42
2017-09-18T10:40:49.920Z,19.59
2017-09-18T10:43:20.194Z,19.54
2017-09-18T10:45:49.748Z,19.41
2017-09-18T10:48:19.384Z,19.46
2017-09-18T10:50:49.132Z,19.58
2017-09-18T10:53:18.835Z,19.13
2017-09-18T10:55:48.831Z,18.79
2017-09-18T10:58:18.444Z,18.29
2017-09-18T11:00:48.764Z,17.98
2017-09-18T11:03:18.888Z,17.76
2017-09-18T11:05:48.898Z,17.84
2017-09-18T11:08:18.499Z,17.83
2017-09-18T11:10:48.257Z,17.82
2017-09-18T11:13:18.028Z,17.51
2017-09-18T11:15:47.699Z,17.18
2017-09-18T11:18:18.400Z,17.00
2017-09-18T11:20:48.096Z,16.90
2017-09-18T11:23:17.687Z,16.78
2017-09-18T11:25:47.739Z,16.66
2017-09-18T11:28:17.414Z,16.52
2017-09-18T11:30:47.142Z,16.40
2017-09-18T11:33:16.830Z,16.35
2017-09-18T11:35:46.565Z,16.50
2017-09-18T11:38:17.111Z,16.54
2017-09-18T11:40:47.852Z,16.63
2017-09-18T11:43:18.351Z,16.70
2017-09-18T11:45:47.865Z,16.73
2017-09-18T11:48:20.205Z,16.80
2017-09-18T11:50:51.001Z,16.67
2017-09-18T11:53:20.498Z,16.76
2017-09-18T11:55:50.052Z,16.58
2017-09-18T11:58:19.567Z,16.63
2017-09-18T12:00:49.048Z,16.58
2017-09-18T12:03:18.575Z,16.78
2017-09-18T12:05:48.163Z,16.93
2017-09-18T12:08:18.340Z,16.98
2017-09-18T12:10:47.879Z,16.69
2017-09-18T12:13:17.415Z,16.63
2017-09-18T12:15:46.919Z,16.45
2017-09-18T12:18:16.735Z,16.33
2017-09-18T12:20:46.252Z,16.29
2017-09-18T12:23:16.016Z,16.10
2017-09-18T12:25:46.217Z,16.12
2017-09-18T12:28:15.841Z,16.12
2017-09-18T12:30:45.612Z,16.12
2017-09-18T12:33:15.248Z,16.07
2017-09-18T12:35:45.042Z,16.12
2017-09-18T12:38:14.615Z,16.24
2017-09-18T12:40:44.357Z,16.31
2017-09-18T12:43:14.418Z,16.25
2017-09-18T12:45:43.979Z,16.34
2017-09-18T12:48:14.215Z,16.28
2017-09-18T12:50:44.203Z,16.25
2017-09-18T12:53:14.227Z,16.21
2017-09-18T12:55:43.754Z,16.24
2017-09-18T12:58:13.293Z,16.24
2017-09-18T13:00:43.494Z,16.22
2017-09-18T13:03:13.060Z,16.29
2017-09-18T13:05:42.890Z,16.19
2017-09-18T13:08:12.384Z,16.14
2017-09-18T13:10:42.020Z,16.13
2017-09-18T13:13:11.847Z,16.10
2017-09-18T13:15:41.854Z,16.09
2017-09-18T13:18:12.296Z,16.18
2017-09-18T13:20:42.059Z,16.33
2017-09-18T13:23:11.727Z,16.42
2017-09-18T13:25:41.347Z,16.36
2017-09-18T13:28:10.862Z,16.51
2017-09-18T13:30:40.488Z,16.60
2017-09-18T13:33:10.161Z,16.51
2017-09-18T13:35:39.676Z,16.44
2017-09-18T13:38:09.124Z,16.41
2017-09-18T13:40:38.985Z,16.35
2017-09-18T13:43:08.616Z,16.20
2017-09-18T13:45:38.362Z,16.11
2017-09-18T13:48:08.246Z,16.16
2017-09-18T13:50:38.164Z,16.20
2017-09-18T13:53:07.893Z,16.21
2017-09-18T13:55:37.803Z,16.25
2017-09-18T13:58:07.814Z,16.37
2017-09-18T14:00:38.260Z,16.43
2017-09-18T14:03:07.937Z,16.47
2017-09-18T14:05:37.783Z,16.48
2017-09-18T14:08:07.255Z,16.44
2017-09-18T14:10:36.767Z,16.53
2017-09-18T14:13:06.864Z,16.63
2017-09-18T14:15:36.575Z,16.73
2017-09-18T14:18:06.423Z,16.76
2017-09-18T14:20:36.023Z,16.83
2017-09-18T14:23:05.640Z,16.86
2017-09-18T14:25:38.283Z,16.84
2017-09-18T14:28:07.919Z,16.88
2017-09-18T14:30:38.103Z,16.75
2017-09-18T14:33:07.596Z,16.68
2017-09-18T14:35:37.140Z,16.70
2017-09-18T14:38:06.702Z,16.67
2017-09-18T14:40:36.915Z,16.59
2017-09-18T14:43:06.711Z,16.62
2017-09-18T14:45:36.452Z,16.63
2017-09-18T14:48:11.755Z,16.62
2017-09-18T14:50:42.637Z,16.61
2017-09-18T14:53:12.136Z,16.62
2017-09-18T14:55:41.678Z,16.62
2017-09-18T14:58:11.218Z,16.56
2017-09-18T15:00:40.750Z,16.50
2017-09-18T15:03:10.194Z,16.59
2017-09-18T15:05:40.137Z,16.66
2017-09-18T15:08:09.566Z,16.65
2017-09-18T15:10:39.132Z,16.71
2017-09-18T15:13:08.603Z,16.66
2017-09-18T15:15:38.157Z,16.66
2017-09-18T15:18:07.702Z,16.65
2017-09-18T15:20:37.450Z,16.75
2017-09-18T15:23:07.317Z,16.79
2017-09-18T15:25:37.599Z,16.79
2017-09-18T15:28:07.055Z,16.75
2017-09-18T15:30:36.562Z,16.64
2017-09-18T15:33:06.169Z,16.59
2017-09-18T15:35:35.937Z,16.43
2017-09-18T15:38:05.475Z,16.38
2017-09-18T15:40:35.131Z,16.35
2017-09-18T15:43:04.686Z,16.29
2017-09-18T15:45:34.238Z,16.25
2017-09-18T15:48:03.748Z,16.24
2017-09-18T15:50:33.310Z,16.18
2017-09-18T15:53:02.833Z,16.16
2017-09-18T15:55:32.322Z,16.08
2017-09-18T15:58:01.803Z,16.07
2017-09-18T16:00:31.595Z,16.05
2017-09-18T16:03:07.754Z,16.04
2017-09-18T16:05:38.413Z,15.98
2017-09-18T16:08:07.988Z,15.97
2017-09-18T16:10:37.639Z,15.95
2017-09-18T16:13:07.238Z,15.89
2017-09-18T16:15:37.444Z,15.85
2017-09-18T16:18:06.976Z,15.82
2017-09-18T16:20:36.579Z,15.83
2017-09-18T16:23:06.647Z,15.71
2017-09-18T16:25:36.444Z,15.73
2017-09-18T16:28:06.269Z,15.65
2017-09-18T16:30:35.929Z,15.60
2017-09-18T16:33:05.434Z,15.52
2017-09-18T16:35:35.079Z,15.45
2017-09-18T16:38:04.842Z,15.41
2017-09-18T16:40:34.735Z,15.34
2017-09-18T16:43:04.578Z,15.27
2017-09-18T16:45:34.578Z,15.11
2017-09-18T16:48:05.236Z,15.14
2017-09-18T16:50:35.579Z,15.04
2017-09-18T16:53:05.407Z,14.93
2017-09-18T16:55:35.084Z,14.84
2017-09-18T16:58:04.788Z,14.81
2017-09-18T17:00:35.479Z,14.71
2017-09-18T17:03:05.333Z,14.67
2017-09-18T17:05:36.373Z,14.58
2017-09-18T17:08:06.123Z,14.51
2017-09-18T17:10:36.324Z,14.46
2017-09-18T17:13:07.109Z,14.43
2017-09-18T17:15:36.897Z,14.37
2017-09-18T17:18:07.377Z,14.31
2017-09-18T17:20:37.247Z,14.24
2017-09-18T17:23:07.911Z,14.17
2017-09-18T17:25:37.708Z,14.08
2017-09-18T17:28:07.627Z,13.97
2017-09-18T17:30:37.704Z,13.89
2017-09-18T17:33:07.586Z,13.83
2017-09-18T17:35:37.600Z,13.78
2017-09-18T17:38:07.391Z,13.65
2017-09-18T17:40:37.347Z,13.61
2017-09-18T17:43:07.019Z,13.57
2017-09-18T17:45:36.781Z,13.48
2017-09-18T17:48:06.887Z,13.40
2017-09-18T17:50:38.462Z,13.38
2017-09-18T17:53:10.282Z,13.29
2017-09-18T17:55:41.357Z,13.29
2017-09-18T17:58:12.073Z,13.24
2017-09-18T18:00:42.692Z,13.18
2017-09-18T18:03:12.174Z,13.10
2017-09-18T18:05:41.887Z,13.07
2017-09-18T18:08:11.791Z,13.06
2017-09-18T18:10:43.317Z,13.03
2017-09-18T18:13:13.339Z,13.00
2017-09-18T18:15:43.550Z,12.87
2017-09-18T18:18:16.869Z,12.78
2017-09-18T18:20:46.896Z,12.77
2017-09-18T18:23:17.866Z,12.77
2017-09-18T18:25:53.013Z,12.73
2017-09-18T18:28:24.665Z,12.66
2017-09-18T18:30:56.451Z,12.59
2017-09-18T18:33:27.671Z,12.55
2017-09-18T18:36:00.832Z,12.50
2017-09-18T18:38:33.651Z,12.46
2017-09-18T18:41:03.667Z,12.41
2017-09-18T18:43:35.152Z,12.38
2017-09-18T18:46:06.627Z,12.37
2017-09-18T18:48:36.508Z,12.34
2017-09-18T18:51:07.956Z,12.30
2017-09-18T18:53:40.887Z,12.27
2017-09-18T18:56:10.933Z,12.22
2017-09-18T18:58:45.359Z,12.18
2017-09-18T19:01:18.584Z,12.10
2017-09-18T19:03:50.910Z,12.06
2017-09-18T19:06:22.534Z,12.02
2017-09-18T19:08:53.075Z,11.95
2017-09-18T19:11:25.217Z,11.86
2017-09-18T19:13:56.111Z,11.75
2017-09-18T19:16:27.948Z,11.66
2017-09-18T19:18:58.447Z,11.69
2017-09-18T19:21:29.803Z,11.66
2017-09-18T19:23:59.572Z,11.64
2017-09-18T19:26:30.267Z,11.62
2017-09-18T19:29:00.697Z,11.62
2017-09-18T19:31:30.819Z,11.62
2017-09-18T19:34:00.627Z,11.62
2017-09-18T19:36:30.400Z,11.53
2017-09-18T19:39:00.078Z,11.48
2017-09-18T19:41:30.009Z,11.43
2017-09-18T19:43:59.944Z,11.41
2017-09-18T19:46:29.739Z,11.42
2017-09-18T19:49:01.064Z,11.42
2017-09-18T19:51:30.975Z,11.38
2017-09-18T19:54:01.074Z,11.36
2017-09-18T19:56:31.010Z,11.31
2017-09-18T19:59:00.895Z,11.28
2017-09-18T20:01:31.065Z,11.24
2017-09-18T20:04:01.122Z,11.24
2017-09-18T20:06:31.034Z,11.22
2017-09-18T20:09:01.328Z,11.19
2017-09-18T20:11:30.883Z,11.14
2017-09-18T20:14:00.487Z,11.09
2017-09-18T20:16:30.003Z,11.01
2017-09-18T20:18:59.776Z,11.03
2017-09-18T20:21:30.081Z,10.95
2017-09-18T20:24:00.176Z,10.92
2017-09-18T20:26:42.260Z,10.92
2017-09-18T20:29:12.981Z,10.87
2017-09-18T20:31:47.883Z,10.82
2017-09-18T20:34:17.629Z,10.80
2017-09-18T20:36:47.441Z,10.76
2017-09-18T20:39:17.214Z,10.74
2017-09-18T20:41:48.683Z,10.72
2017-09-18T20:44:20.653Z,10.71
2017-09-18T20:46:50.843Z,10.61
2017-09-18T20:49:20.483Z,10.60
2017-09-18T20:51:50.423Z,10.57
2017-09-18T20:54:20.527Z,10.57
2017-09-18T20:56:51.619Z,10.56
2017-09-18T20:59:22.095Z,10.51
2017-09-18T21:01:51.659Z,10.47
2017-09-18T21:04:22.589Z,10.41
2017-09-18T21:06:52.495Z,10.42
2017-09-18T21:09:22.259Z,10.41
2017-09-18T21:11:52.107Z,10.39
2017-09-18T21:14:21.879Z,10.36
2017-09-18T21:16:51.572Z,10.32
2017-09-18T21:19:21.570Z,10.30
2017-09-18T21:21:51.342Z,10.23
2017-09-18T21:24:21.014Z,10.15
2017-09-18T21:26:50.843Z,10.17
2017-09-18T21:29:20.640Z,10.17
2017-09-18T21:31:51.451Z,10.13
2017-09-18T21:34:21.575Z,10.11
2017-09-18T21:36:52.842Z,10.10
2017-09-18T21:39:22.346Z,10.05
2017-09-18T21:41:52.163Z,9.97
2017-09-18T21:44:21.795Z,9.98
2017-09-18T21:46:51.323Z,9.95
2017-09-18T21:49:21.211Z,9.92
2017-09-18T21:51:50.925Z,9.86
2017-09-18T21:54:20.600Z,9.89
2017-09-18T21:56:50.138Z,9.89
2017-09-18T21:59:20.135Z,9.91
2017-09-18T22:01:49.974Z,9.89
2017-09-18T22:04:20.570Z,9.90
2017-09-18T22:06:50.461Z,9.84
2017-09-18T22:09:20.122Z,9.86
2017-09-18T22:11:50.224Z,9.81
2017-09-18T22:14:20.132Z,9.78
2017-09-18T22:16:49.904Z,9.82
2017-09-18T22:19:19.616Z,9.78
2017-09-18T22:21:49.513Z,9.74
2017-09-18T22:24:19.268Z,9.72
2017-09-18T22:26:49.146Z,9.70
2017-09-18T22:29:19.696Z,9.70
2017-09-18T22:31:49.540Z,9.68
2017-09-18T22:34:19.554Z,9.63
2017-09-18T22:36:50.080Z,9.60
2017-09-18T22:39:19.938Z,9.61
2017-09-18T22:41:49.657Z,9.58
2017-09-18T22:44:19.551Z,9.53
2017-09-18T22:46:49.144Z,9.48
2017-09-18T22:49:18.739Z,9.47
2017-09-18T22:51:48.984Z,9.46
2017-09-18T22:54:18.479Z,9.47
2017-09-18T22:56:47.969Z,9.47
2017-09-18T22:59:17.451Z,9.43
2017-09-18T23:01:47.779Z,9.39
2017-09-18T23:04:17.963Z,9.34
2017-09-18T23:06:47.535Z,9.33
2017-09-18T23:09:17.032Z,9.33
2017-09-18T23:11:46.654Z,9.26
2017-09-18T23:14:16.122Z,9.23
2017-09-18T23:16:45.670Z,9.22
2017-09-18T23:19:15.211Z,9.17
2017-09-18T23:21:44.812Z,9.18
2017-09-18T23:24:14.518Z,9.14
2017-09-18T23:26:44.031Z,9.06
2017-09-18T23:29:13.772Z,9.06
2017-09-18T23:31:43.261Z,9.04
2017-09-18T23:34:12.773Z,9.00
2017-09-18T23:36:42.791Z,8.97
2017-09-18T23:39:12.619Z,8.96
2017-09-18T23:41:42.467Z,8.97
2017-09-18T23:44:12.132Z,8.86
2017-09-18T23:46:41.876Z,8.92
2017-09-18T23:49:11.745Z,8.91
2017-09-18T23:51:41.695Z,8.88
2017-09-18T23:54:11.188Z,8.84
2017-09-18T23:56:40.755Z,8.82
2017-09-18T23:59:10.358Z,8.82
